Terminal Aerodrome Forecast
Issued by NWS Midland/Odessa, TX

Home | Current Version | Previous Version | Text Only | Print | Product List | Glossary On
Versions: 1 2 3 4 5 6 7 8 9 10 11 12 13 14
000
FTUS44 KMAF 010523
TAFMAF
TAF
KMAF 010523Z 0106/0206 08015G23KT P6SM SCT120
     FM010900 07023G30KT P6SM SCT120
     FM011200 05018G25KT P6SM OVC035
      TEMPO 0112/0116 OVC025=

USA.gov is the U.S. government's official web portal to all federal, state and local government web resources and services.